New Iberia, LA (70560)

6:38 AM CDT on July 27, 2016 (GMT -0500)
New Iberia City Park Neighborhood | | Change Station

Elev 43 ft 30.00 °N, 91.80 °W | Updated 43 seconds ago

Heavy Rain
Heavy Rain Mist
74.7 °F
Feels Like 72 °F
N
0.0
Wind Variable Wind from SE
Gusts 0.0 mph

Today
High -- | Low -- °F
--% Chance of Precip.
Yesterday
High -- | Low -- °F
Precip. -- in
Pressure 29.99 in
Visibility 3.0 miles
Clouds Few 4600 ft
Mostly Cloudy 5500 ft
Overcast 7000 ft
Heat Index 72 °F
Dew Point 74 °F
Humidity 99%
Rainfall 0.78 in
Snow Depth Not available.
6:23 AM 8:03 PM
Last Quarter, 44% visible
METAR KARA 271053Z 18007KT 3SM +RA BR FEW046 BKN055 OVC070 23/23 A3000 RMK AO2 SLP156 P0020 T02330228
Pressure 29.99 in
Visibility 3.0 miles
Clouds Few 4600 ft
Mostly Cloudy 5500 ft
Overcast 7000 ft
Heat Index 72 °F
Dew Point 74 °F
Humidity 99%
Rainfall 0.78 in
Snow Depth Not available.
6:23 AM 8:03 PM
Last Quarter, 44% visible
METAR KARA 271053Z 18007KT 3SM +RA BR FEW046 BKN055 OVC070 23/23 A3000 RMK AO2 SLP156 P0020 T02330228

10-Day Weather Forecast

Almanac

Astronomy

Jul. 27, 2016 Rise Set
Actual Time
Civil Twilight
Nautical Twilight
Astronomical Twilight
Moon
Length of Visible Light
Length of Day
Tomorrow will be .
, % of the Moon is Illuminated

Today's Extremes

State Highs State Lows

Community

WunderPhotos

Upload Photos

1,927,828 photos uploaded!

WunderBlog® & News

Nearby

Air Quality

  Air Quality AQ Index Pollutant
Not available.

Snow Depth

Station Depth Elevation

Earthquake Activity

City Distance Mag. Time & Date
Minimum magnitude displayed is 2.5.

Coastal Water Temperatures

Place Temperature

Stations

Nearby Weather Stations

Station Location Temp. Windchill Dew Point Humidity Wind Precip. Elev Updated Type
                   

Watches & Warnings

There are currently no watches in effect.